Flight Track Log - Related Links

Times and Time Zones

All times are in EDT time to prevent confusion due to time zone crossing. See the DAL488 flight status page for this flight to view local times or setup timezone preferences in your user account.

Time Position Orientation Groundspeed Altitude Reporting Facility
EDT Latitude Longitude Course Direction KTS MPH feet Rate Location/Type
Thu 07:12:00 PM 19.7451 -69.8697 352° North  Level Estimated
Thu 07:13:00 PM 19.8646 -69.8881 352° North  Level Estimated
Thu 07:13:30 PM 19.2389 -70.1064 352° North 466 536 25,000  Level Miami Center
Thu 07:14:00 PM 19.9842 -69.9065 352° North  Level Estimated
Thu 07:14:30 PM 19.3672 -70.1331 349° North 471 542 25,500  Level Miami Center
Thu 07:15:00 PM 20.1038 -69.9250 352° North  Level Estimated
Thu 07:15:30 PM 19.4975 -70.1664 346° North 477 549 26,800  Level Miami Center
Thu 07:16:00 PM 20.2233 -69.9435 352° North  Level Estimated
Thu 07:16:30 PM 19.6361 -70.1906 351° North 482 555 28,200  Level Miami Center
Thu 07:17:00 PM 20.3429 -69.9620 352° North  Level Estimated
Thu 07:17:30 PM 19.7683 -70.2197 348° North 488 562 29,500  Level Miami Center
Thu 07:18:00 PM 20.4624 -69.9806 352° North  Level Estimated
Thu 07:18:30 PM 19.9028 -70.2461 350° North 488 562 31,000  Level Miami Center
Thu 07:19:30 PM 20.0333 -70.2775 347° North 483 556 32,600 1,400 Climbing Miami Center
Thu 07:20:30 PM 20.1614 -70.3044 349° North 471 542 33,800 700 Climbing Miami Center
Thu 07:21:30 PM 20.2897 -70.3339 348° North 471 542 34,000 100 Climbing Miami Center
Thu 07:22:30 PM 20.4231 -70.3297 North 471 542 34,000  Level Miami Center
Thu 07:23:30 PM 20.5528 -70.2969 13° North 466 536 34,000  Level Miami Center
Thu 07:24:30 PM 20.6825 -70.2619 14° North 471 542 34,000  Level Miami Center
Thu 07:25:30 PM 20.8083 -70.2294 14° North 471 542 34,000  Level Miami Center
Thu 07:26:30 PM 20.9361 -70.1944 14° North 471 542 34,000  Level Miami Center
Thu 07:27:30 PM 21.0617 -70.1617 14° North 466 536 34,000  Level Miami Center
Thu 07:28:30 PM 21.1894 -70.1286 14° North 466 536 34,000  Level Miami Center
Thu 07:29:30 PM 21.3278 -70.0950 13° North 466 536 34,000  Level Miami Center
Thu 07:30:30 PM 21.4431 -70.0625 15° North 466 536 34,000  Level Miami Center
Thu 07:31:30 PM 21.5708 -70.0292 14° North 466 536 34,000  Level Miami Center
Thu 07:32:30 PM 21.6964 -69.9983 13° North 466 536 34,000  Level Miami Center
Thu 07:33:30 PM 21.8200 -69.9628 15° North 466 536 34,000  Level Miami Center
Thu 07:34:30 PM 21.9478 -69.9294 14° North 466 536 34,000  Level Miami Center
Thu 07:35:30 PM 22.0714 -69.8961 14° North 466 536 34,000  Level Miami Center
Thu 07:36:30 PM 22.1969 -69.8625 14° North 460 529 34,000  Level Miami Center
Thu 07:37:30 PM 22.3225 -69.8289 14° North 460 529 34,000  Level Miami Center
Thu 07:38:30 PM 22.4483 -69.7975 13° North 460 529 34,000 50 Level Miami Center
Thu 07:39:30 PM 22.5739 -69.7617 15° North 467 537 34,100 650 Climbing Miami Center
Thu 07:40:30 PM 22.7017 -69.7300 13° North 467 537 35,300 950 Climbing Miami Center
Thu 07:41:30 PM 22.8231 -69.6942 15° North 467 537 36,000 350 Climbing Miami Center
Thu 07:42:30 PM 22.9464 -69.6581 15° North 462 532 36,000  Level Miami Center
Thu 07:43:30 PM 23.0742 -69.6283 12° North 467 537 36,000  Level Miami Center
Thu 07:44:30 PM 23.1975 -69.5919 15° North 462 532 36,000  Level Miami Center
Thu 07:45:30 PM 23.3256 -69.5644 11° North 462 532 36,000  Level Miami Center
Thu 07:46:30 PM 23.4467 -69.5258 16° North 462 532 36,000  Level Miami Center
Thu 07:47:30 PM 23.5703 -69.4939 13° North 462 532 36,000  Level Miami Center
Thu 07:48:30 PM 23.6939 -69.4594 14° North 462 532 36,000  Level Miami Center
Thu 07:49:30 PM 23.8150 -69.4228 15° North 457 526 36,000  Level Miami Center
Thu 07:50:30 PM 23.9406 -69.3906 13° North 457 526 36,000  Level Miami Center
Thu 07:51:30 PM 24.0642 -69.3581 13° North 452 520 36,000  Level Miami Center
Thu 07:52:30 PM 24.1875 -69.3233 14° North 452 520 36,000  Level Miami Center
Thu 07:53:30 PM 24.3150 -69.2906 13° North 452 520 36,000  Level Miami Center
Thu 07:54:30 PM 24.4342 -69.2517 17° North 452 520 36,000  Level Miami Center
Thu 07:55:30 PM 24.5597 -69.2186 13° North 452 520 36,000  Level Miami Center
Thu 07:56:30 PM 24.6853 -69.1906 11° North 452 520 36,000  Level Miami Center
Thu 07:57:30 PM 24.8083 -69.1508 16° North 457 526 36,000  Level Miami Center
Thu 07:58:30 PM 24.9317 -69.1156 15° North 457 526 36,000  Level Miami Center
Thu 07:59:30 PM 25.0567 -69.1100 North 457 526 36,000  Level Miami Center
Thu 08:01:00 PM 25.2322 -69.1455 350° North  Level FlightAware Approximate
Thu 08:02:00 PM 25.0000 -69.1000 349° North 449 517 36,000  Level New York Oceanic (ODAPS)
Thu 08:08:00 PM 26.1053 -69.3295 349° North 449 517 36,000  Level FlightAware Transoceanic
Thu 08:09:00 PM 26.2281 -69.3553 349° North 449 517 36,000  Level FlightAware Transoceanic
Thu 08:10:00 PM 26.3509 -69.3811 349° North 449 517 36,000  Level FlightAware Transoceanic
Thu 08:11:00 PM 26.4737 -69.4070 349° North 449 517 36,000  Level FlightAware Transoceanic
Thu 08:12:00 PM 26.5965 -69.4329 349° North 449 517 36,000  Level FlightAware Transoceanic
Thu 08:13:00 PM 26.7192 -69.4589 349° North 449 517 36,000  Level FlightAware Transoceanic
Thu 08:14:00 PM 26.8420 -69.4850 349° North 449 517 36,000  Level FlightAware Transoceanic
Thu 08:14:16 PM 26.7167 -69.4500 349° North 446 513 36,000  Level New York Oceanic (ODAPS)
Thu 08:15:00 PM 26.9648 -69.5111 349° North 449 517 36,000  Level FlightAware Transoceanic
Thu 08:16:00 PM 27.0875 -69.5372 349° North 449 517 36,000  Level FlightAware Transoceanic
Thu 08:17:00 PM 27.2103 -69.5634 349° North 449 517 36,000  Level FlightAware Transoceanic
Thu 08:18:00 PM 27.3330 -69.5897 349° North 449 517 36,000  Level FlightAware Transoceanic
Thu 08:19:00 PM 27.4557 -69.6161 349° North 449 517 36,000  Level FlightAware Transoceanic
Thu 08:20:00 PM 27.5765 -69.6355 349° North 446 513 36,000  Level FlightAware Transoceanic
Thu 08:21:00 PM 27.6994 -69.6623 349° North 446 513 36,000  Level FlightAware Transoceanic
Thu 08:22:00 PM 27.8222 -69.6891 349° North 446 513 36,000  Level FlightAware Transoceanic
Thu 08:23:00 PM 27.9450 -69.7160 349° North 446 513 36,000  Level FlightAware Transoceanic
Thu 08:24:00 PM 28.0678 -69.7429 349° North 446 513 36,000  Level FlightAware Transoceanic
Thu 08:25:00 PM 28.1906 -69.7699 349° North 446 513 36,000  Level FlightAware Transoceanic
Thu 08:26:00 PM 28.3134 -69.7969 349° North 446 513 36,000  Level FlightAware Transoceanic
Thu 08:27:00 PM 28.4362 -69.8240 349° North 446 513 36,000  Level FlightAware Transoceanic
Thu 08:28:00 PM 28.5589 -69.8512 349° North 446 513 36,000  Level FlightAware Transoceanic
Thu 08:29:00 PM 28.6817 -69.8784 349° North 446 513 36,000  Level FlightAware Transoceanic
Thu 08:30:00 PM 28.8045 -69.9057 349° North 446 513 36,000  Level FlightAware Transoceanic
Thu 08:31:00 PM 28.9273 -69.9331 349° North 446 513 36,000  Level FlightAware Transoceanic
Thu 08:32:00 PM 29.0500 -69.9605 349° North 446 513 36,000  Level FlightAware Transoceanic
Thu 08:33:00 PM 29.1728 -69.9880 349° North 446 513 36,000  Level FlightAware Transoceanic
Thu 08:34:00 PM 29.2955 -70.0156 349° North 446 513 36,000  Level FlightAware Transoceanic
Thu 08:35:00 PM 29.4183 -70.0432 349° North 446 513 36,000  Level FlightAware Transoceanic
Thu 08:36:00 PM 29.5410 -70.0709 349° North 446 513 36,000  Level FlightAware Transoceanic
Thu 08:37:00 PM 29.6637 -70.0987 349° North 446 513 36,000  Level FlightAware Transoceanic
Thu 08:38:00 PM 29.7865 -70.1265 349° North 446 513 36,000  Level FlightAware Transoceanic
Thu 08:39:00 PM 29.9092 -70.1544 349° North 446 513 36,000  Level FlightAware Transoceanic
Thu 08:40:00 PM 30.0319 -70.1824 349° North 446 513 36,000  Level FlightAware Transoceanic
Thu 08:41:00 PM 30.1546 -70.2104 349° North 446 513 36,000  Level FlightAware Transoceanic
Thu 08:42:00 PM 30.2773 -70.2385 349° North 446 513 36,000  Level FlightAware Transoceanic
Thu 08:43:00 PM 30.4000 -70.2667 349° North 446 513 36,000  Level FlightAware Transoceanic
Thu 08:44:00 PM 30.5234 -70.2948 349° North 446 513 36,000  Level FlightAware Transoceanic
Thu 08:45:00 PM 30.6468 -70.3229 349° North 446 513 36,000  Level FlightAware Transoceanic
Thu 08:46:00 PM 30.7702 -70.3512 349° North 446 513 36,000  Level FlightAware Transoceanic
Thu 08:46:21 PM 30.4000 -70.2667 349° North 447 514 36,000  Level New York Oceanic (ODAPS)
Thu 08:47:00 PM 30.8936 -70.3795 349° North 446 513 36,000  Level FlightAware Transoceanic
Thu 08:48:00 PM 31.0170 -70.4079 349° North 446 513 36,000  Level FlightAware Transoceanic
Thu 08:49:00 PM 31.1403 -70.4363 349° North 446 513 36,000  Level FlightAware Transoceanic
Thu 08:50:00 PM 31.2637 -70.4649 349° North 446 513 36,000  Level FlightAware Transoceanic
Thu 08:51:00 PM 31.3871 -70.4935 349° North 446 513 36,000  Level FlightAware Transoceanic
Thu 08:52:00 PM 31.5104 -70.5222 349° North 447 514 36,000  Level FlightAware Transoceanic
Thu 08:53:00 PM 31.6338 -70.5509 349° North 447 514 36,000  Level FlightAware Transoceanic
Thu 08:54:00 PM 31.7571 -70.5798 349° North 447 514 36,000  Level FlightAware Transoceanic
Thu 08:55:00 PM 31.8805 -70.6087 349° North 447 514 36,000  Level FlightAware Transoceanic
Thu 08:56:00 PM 32.0038 -70.6377 349° North 447 514 36,000  Level FlightAware Transoceanic
Thu 08:57:00 PM 32.1271 -70.6668 349° North 447 514 36,000  Level FlightAware Transoceanic
Thu 08:58:00 PM 32.2504 -70.6959 349° North 447 514 36,000  Level FlightAware Transoceanic
Thu 08:59:00 PM 32.3737 -70.7251 349° North 447 514 36,000  Level FlightAware Transoceanic
Thu 09:00:00 PM 32.4970 -70.7544 349° North 447 514 36,000  Level FlightAware Transoceanic
Thu 09:01:00 PM 32.6203 -70.7838 349° North 447 514 36,000  Level FlightAware Transoceanic
Thu 09:02:00 PM 32.7436 -70.8133 349° North 447 514 36,000  Level FlightAware Transoceanic
Thu 09:03:00 PM 32.8669 -70.8429 349° North 447 514 36,000  Level FlightAware Transoceanic
Thu 09:04:00 PM 32.9902 -70.8725 349° North 447 514 36,000  Level FlightAware Transoceanic
Thu 09:05:00 PM 33.1134 -70.9022 349° North 447 514 36,000  Level FlightAware Transoceanic
Thu 09:06:00 PM 33.2367 -70.9320 349° North 447 514 36,000  Level FlightAware Transoceanic
Thu 09:07:00 PM 33.3600 -70.9619 349° North 447 514 36,000  Level FlightAware Transoceanic
Thu 09:08:00 PM 33.4832 -70.9919 349° North 447 514 36,000  Level FlightAware Transoceanic
Thu 09:09:00 PM 33.6064 -71.0219 349° North 447 514 36,000  Level FlightAware Transoceanic
Thu 09:10:00 PM 33.7297 -71.0521 348° North 447 514 36,000  Level FlightAware Transoceanic
Thu 09:11:00 PM 33.8529 -71.0823 348° North 447 514 36,000  Level FlightAware Transoceanic
Thu 09:12:00 PM 33.9761 -71.1126 348° North 447 514 36,000  Level FlightAware Transoceanic
Thu 09:13:00 PM 34.0993 -71.1430 348° North 447 514 36,000  Level FlightAware Transoceanic
Thu 09:14:00 PM 34.2225 -71.1735 348° North 447 514 36,000  Level FlightAware Transoceanic
Thu 09:14:08 PM 33.6833 -71.0333 348° North 447 514 36,000  Level New York Oceanic (ODAPS)
Thu 09:15:00 PM 34.3457 -71.2041 348° North 447 514 36,000  Level FlightAware Transoceanic
Thu 09:16:00 PM 34.4689 -71.2348 348° North 447 514 36,000  Level FlightAware Transoceanic
Thu 09:17:00 PM 34.5921 -71.2655 348° North 447 514 36,000  Level FlightAware Transoceanic
Thu 09:18:00 PM 34.7153 -71.2964 348° North 447 514 36,000  Level FlightAware Transoceanic
Thu 09:19:00 PM 34.8384 -71.3273 348° North 447 514 36,000  Level FlightAware Transoceanic
Thu 09:20:00 PM 34.8897 -71.3352 348° North 447 514 36,000  Level FlightAware Transoceanic
Thu 09:21:00 PM 35.0103 -71.3659 348° North 447 514 36,000  Level FlightAware Transoceanic
Thu 09:22:00 PM 35.1309 -71.3967 348° North 447 514 36,000  Level FlightAware Transoceanic
Thu 09:23:00 PM 35.2514 -71.4275 348° North 447 514 36,000  Level FlightAware Transoceanic
Thu 09:24:00 PM 35.3720 -71.4585 348° North 447 514 36,000  Level FlightAware Transoceanic
Thu 09:25:00 PM 35.4926 -71.4895 348° North 447 514 36,000  Level FlightAware Transoceanic
Thu 09:26:00 PM 35.6131 -71.5206 348° North 447 514 36,000  Level FlightAware Transoceanic
Thu 09:27:00 PM 35.7337 -71.5518 348° North 447 514 36,000  Level FlightAware Transoceanic
Thu 09:27:24 PM 35.6333 -71.5333 348° North 437 503 36,000  Level New York Oceanic (ODAPS)
Thu 09:28:00 PM 35.8542 -71.5832 348° North 447 514 36,000  Level FlightAware Transoceanic
Thu 09:29:00 PM 35.9747 -71.6146 348° North 447 514 36,000  Level FlightAware Transoceanic
Thu 09:30:00 PM 36.0952 -71.6461 348° North 447 514 36,000  Level FlightAware Transoceanic
Thu 09:31:00 PM 36.2158 -71.6777 348° North 447 514 36,000  Level FlightAware Transoceanic
Thu 09:31:40 PM 36.2942 -71.6939 348° North 458 527 36,000  Level New York Center
Thu 09:32:00 PM 36.3363 -71.7094 348° North 447 514 36,000  Level FlightAware Transoceanic
Thu 09:32:41 PM 36.4128 -71.7289 347° North 464 534 36,000  Level New York Center
Thu 09:33:00 PM 36.4669 -71.7477 348° North 437 503 36,000  Level FlightAware Transoceanic
Thu 09:33:38 PM 36.5397 -71.7589 349° North 454 522 36,000  Level New York Center
Thu 09:34:00 PM 36.5859 -71.7787 348° North 437 503 36,000 -98 Level FlightAware Transoceanic
Thu 09:34:39 PM 36.6625 -71.7942 347° North 449 517 35,900  Descending New York Center
Thu 09:35:00 PM 36.7049 -71.8098 348° North 437 503 36,000 97 Climbing FlightAware Transoceanic
Thu 09:35:41 PM 36.7894 -71.8272 348° North 454 522 36,000  Level New York Center
Thu 09:36:00 PM 36.8240 -71.8409 348° North 437 503 36,000  Level FlightAware Transoceanic
Thu 09:36:39 PM 36.9081 -71.8653 346° North 449 517 36,000 -61 Level New York Center
Thu 09:37:39 PM 37.0242 -71.9319 335° Northwest 449 517 35,900 -50 Descending New York Center
Thu 09:38:38 PM 37.1258 -71.9986 332° Northwest 448 516 35,900 50 Level New York Center
Thu 09:39:39 PM 37.2397 -72.0686 334° Northwest 448 516 36,000 50 Climbing New York Center
Thu 09:40:39 PM 37.3494 -72.1411 332° Northwest 448 516 36,000  Level New York Center
Thu 09:41:40 PM 37.4614 -72.2086 334° Northwest 453 521 36,000 -49 Level New York Center
Thu 09:42:41 PM 37.5814 -72.2842 333° Northwest 453 521 35,900 -50 Descending New York Center
Thu 09:43:41 PM 37.6950 -72.3603 332° Northwest 424 488 35,900 51 Level New York Center
Thu 09:44:39 PM 37.8150 -72.4311 335° Northwest 443 510 36,000 50 Climbing New York Center
Thu 09:45:41 PM 37.9308 -72.5050 333° Northwest 461 531 36,000  Level New York Center
Thu 09:46:41 PM 38.0464 -72.5761 334° Northwest 466 536 36,000  Level New York Center
Thu 09:47:41 PM 38.1619 -72.6506 333° Northwest 461 531 36,000  Level New York Center
Thu 09:48:40 PM 38.2797 -72.7250 334° Northwest 461 531 36,000 -50 Level New York Center
Thu 09:49:41 PM 38.3931 -72.8022 332° Northwest 461 531 35,900 -403 Descending New York Center
Thu 09:50:39 PM 38.5064 -72.8797 332° Northwest 461 531 35,200 -1,815 Descending New York Center
Thu 09:51:40 PM 38.6281 -72.9497 336° Northwest 461 531 32,300 -3,000 Descending New York Center
Thu 09:52:41 PM 38.7475 -73.0306 332° Northwest 471 542 29,100 -2,826 Descending New York Center
Thu 09:53:41 PM 38.8608 -73.1036 333° Northwest 465 535 26,600 -2,542 Descending New York Center
Thu 09:54:39 PM 38.9761 -73.1742 335° Northwest 465 535 24,100 -2,471 Descending New York Center
Thu 09:55:40 PM 39.0850 -73.2500 332° Northwest 452 520 21,700 -2,400 Descending New York Center
Thu 09:56:39 PM 39.1919 -73.3208 333° Northwest 442 509 19,300 -2,319 Descending New York Center
Thu 09:57:39 PM 39.2928 -73.3836 334° Northwest 430 495 17,100 -2,231 Descending New York Center
Thu 09:58:40 PM 39.3872 -73.4461 333° Northwest 399 459 14,800 -1,525 Descending New York Center
Thu 09:59:41 PM 39.4756 -73.5061 332° Northwest 378 435 14,000 -403 Descending New York Center
Thu 10:00:39 PM 39.5719 -73.5664 334° Northwest 371 427 14,000 -915 Level New York Center
Thu 10:01:39 PM 39.6581 -73.6236 333° Northwest 366 421 12,200 -1,785 Descending New York Center
Thu 10:02:40 PM 39.7464 -73.6842 332° Northwest 360 414 10,400 -1,190 Descending New York Center
Thu 10:03:40 PM 39.8242 -73.7358 333° Northwest 348 400 9,800 -756 Descending New York Center
Thu 10:04:39 PM 39.8981 -73.7850 333° Northwest 310 357 8,900 -403 Descending New York Center
Thu 10:05:39 PM 39.9767 -73.8103 346° North 292 336 9,000 50 Climbing New York Center
Thu 10:06:40 PM 40.0517 -73.8081 North 287 330 9,000 -650 Level New York Center
Thu 10:07:39 PM 40.1319 -73.7653 22° Northeast 282 325 7,700 -1,350 Descending New York Center
Thu 10:08:40 PM 40.2042 -73.7142 28° Northeast 282 325 6,300 -1,230 Descending New York Center
Thu 10:09:41 PM 40.2656 -73.6733 27° Northeast 282 325 5,200 -1,169 Descending New York Center
Thu 10:10:38 PM 40.3356 -73.6244 28° Northeast 270 311 4,000 -590 Descending New York Center
Thu 10:11:43 PM 40.4000 -73.5833 26° Northeast 258 297 4,000  Level New York TRACON
Thu 10:12:43 PM 40.4667 -73.5333 30° Northeast 260 299 4,000 -250 Level New York TRACON
Thu 10:13:43 PM 40.5333 -73.5000 21° North 255 293 3,500 -500 Descending New York TRACON
Thu 10:14:43 PM 40.6000 -73.5167 349° North 245 282 3,000 -250 Descending New York TRACON
Thu 10:15:43 PM 40.6667 -73.5500 339° North 245 282 3,000 -450 Level New York TRACON
Thu 10:16:43 PM 40.7333 -73.5667 349° North 241 277 2,100 -496 Descending New York TRACON
Thu 10:17:44 PM 40.7667 -73.6333 303° West 220 253 2,000 -100 Descending New York TRACON
Thu 10:18:43 PM 40.7333 -73.6833 229° Southwest 213 245 1,900 -555 Descending New York TRACON
Thu 10:19:43 PM 40.6833 -73.7167 207° Southwest 186 214 900 -1,000 Descending New York TRACON

Login

Don't have an account? Register now (free) for customized features, flight alerts, and more!